createdAt,value
2018-04-19T00:03:06.487Z,56.00
2018-04-19T00:05:39.873Z,56.00
2018-04-19T00:08:09.134Z,55.90
2018-04-19T00:13:11.959Z,55.60
2018-04-19T00:15:44.528Z,55.70
2018-04-19T00:18:14.557Z,55.40
2018-04-19T00:20:48.128Z,55.30
2018-04-19T00:25:51.069Z,55.20
2018-04-19T00:28:19.557Z,55.10
2018-04-19T00:30:53.489Z,55.10
2018-04-19T00:33:22.005Z,55.10
2018-04-19T00:35:55.473Z,55.10
2018-04-19T00:38:24.280Z,55.30
2018-04-19T00:40:58.309Z,55.20
2018-04-19T00:43:27.612Z,55.30
2018-04-19T00:46:01.042Z,55.40
2018-04-19T00:48:30.300Z,55.80
2018-04-19T00:51:03.669Z,55.80
2018-04-19T00:53:32.177Z,55.40
2018-04-19T00:56:07.433Z,55.40
2018-04-19T00:58:37.396Z,55.50
2018-04-19T01:01:18.725Z,55.70
2018-04-19T01:03:47.497Z,55.80
2018-04-19T01:06:17.152Z,55.90
2018-04-19T01:08:46.413Z,56.80
2018-04-19T01:11:15.203Z,56.20
2018-04-19T01:13:45.185Z,56.40
2018-04-19T01:16:16.504Z,56.40
2018-04-19T01:21:18.889Z,56.50
2018-04-19T01:23:48.906Z,56.60
2018-04-19T01:26:29.757Z,56.70
2018-04-19T01:28:59.048Z,56.80
2018-04-19T01:31:29.333Z,56.90
2018-04-19T01:33:57.888Z,57.10
2018-04-19T01:36:27.911Z,57.30
2018-04-19T01:38:57.854Z,57.60
2018-04-19T01:41:28.035Z,57.90
2018-04-19T01:43:57.705Z,58.10
2018-04-19T01:46:30.306Z,58.30
2018-04-19T01:48:59.307Z,58.50
2018-04-19T01:51:31.782Z,58.60
2018-04-19T01:54:00.541Z,58.80
2018-04-19T01:56:33.105Z,59.10
2018-04-19T01:59:02.084Z,59.40
2018-04-19T02:01:35.003Z,59.60
2018-04-19T02:04:03.555Z,59.90
2018-04-19T02:06:32.049Z,60.60
2018-04-19T02:09:01.584Z,61.10
2018-04-19T02:11:30.100Z,61.50
2018-04-19T02:13:58.629Z,61.80
2018-04-19T02:18:57.310Z,62.20
2018-04-19T02:21:26.562Z,62.30
2018-04-19T02:26:24.858Z,62.30
2018-04-19T02:28:54.137Z,62.90
2018-04-19T02:31:23.668Z,62.30
2018-04-19T02:33:53.933Z,63.10
2018-04-19T02:36:22.458Z,62.20
2018-04-19T02:39:04.512Z,62.30
2018-04-19T02:41:33.050Z,62.40
2018-04-19T02:44:02.336Z,62.90
2018-04-19T02:46:32.236Z,62.40
2018-04-19T02:49:01.548Z,62.40
2018-04-19T02:51:30.046Z,62.00
2018-04-19T02:54:04.917Z,61.90
2018-04-19T02:56:33.457Z,61.50
2018-04-19T03:01:35.417Z,61.20
2018-04-19T03:04:10.681Z,61.00
2018-04-19T03:06:40.065Z,61.70
2018-04-19T03:11:40.077Z,61.90
2018-04-19T03:14:22.404Z,61.30
2018-04-19T03:16:52.025Z,61.50
2018-04-19T03:19:22.087Z,61.70
2018-04-19T03:21:52.101Z,61.80
2018-04-19T03:24:21.640Z,62.00
2018-04-19T03:26:50.140Z,62.00
2018-04-19T03:29:19.922Z,62.60
2018-04-19T03:31:48.703Z,61.80
2018-04-19T03:34:21.570Z,61.80
2018-04-19T03:36:51.952Z,62.20
2018-04-19T03:46:54.989Z,64.50
2018-04-19T03:49:30.201Z,65.60
2018-04-19T03:51:58.708Z,65.80
2018-04-19T03:54:31.106Z,66.00
2018-04-19T03:57:00.377Z,66.00
2018-04-19T03:59:33.376Z,66.90
2018-04-19T04:02:03.287Z,66.40
2018-04-19T04:12:07.460Z,65.80
2018-04-19T04:19:21.824Z,65.00
2018-04-19T04:22:00.645Z,63.30
2018-04-19T04:24:29.930Z,63.60
2018-04-19T04:26:58.774Z,63.00
2018-04-19T04:29:27.272Z,63.40
2018-04-19T04:31:56.554Z,63.80
2018-04-19T04:34:25.447Z,64.30
2018-04-19T04:36:54.401Z,64.60
2018-04-19T04:39:23.305Z,64.80
2018-04-19T04:41:54.392Z,65.80
2018-04-19T04:44:24.058Z,65.40
2018-04-19T04:47:05.072Z,65.70
2018-04-19T04:49:34.345Z,65.90
2018-04-19T04:52:03.175Z,65.80
2018-04-19T04:54:31.681Z,65.60
2018-04-19T04:57:01.748Z,65.50
2018-04-19T05:04:32.244Z,64.30
2018-04-19T05:07:06.441Z,63.80
2018-04-19T05:09:36.485Z,63.40
2018-04-19T05:14:39.674Z,62.00
2018-04-19T05:17:12.361Z,61.60
2018-04-19T05:19:41.634Z,61.40
2018-04-19T05:22:15.209Z,60.80
2018-04-19T05:24:43.719Z,60.50
2018-04-19T05:27:17.610Z,60.10
2018-04-19T05:29:46.905Z,60.00
2018-04-19T05:32:19.968Z,59.60
2018-04-19T05:34:49.257Z,59.90
2018-04-19T05:37:22.852Z,59.80
2018-04-19T05:39:51.792Z,60.00
2018-04-19T05:42:24.449Z,59.90
2018-04-19T05:44:53.262Z,59.60
2018-04-19T05:47:35.034Z,59.50
2018-04-19T05:50:05.265Z,59.50
2018-04-19T05:52:33.785Z,59.00
2018-04-19T05:55:02.332Z,59.00
2018-04-19T05:57:32.413Z,59.10
2018-04-19T06:02:32.994Z,59.50
2018-04-19T06:05:02.286Z,59.40
2018-04-19T06:07:35.541Z,59.80
2018-04-19T06:10:05.126Z,59.60
2018-04-19T06:12:46.452Z,59.50
2018-04-19T06:15:16.066Z,60.50
2018-04-19T06:17:44.584Z,59.80
2018-04-19T06:20:13.116Z,60.50
2018-04-19T06:22:42.804Z,58.50
2018-04-19T06:27:46.152Z,50.50
2018-04-19T06:30:15.889Z,47.60
2018-04-19T06:32:48.950Z,47.00
2018-04-19T06:35:17.551Z,45.70
2018-04-19T06:37:49.975Z,43.70
2018-04-19T06:40:18.943Z,41.50
2018-04-19T06:42:51.434Z,42.70
2018-04-19T06:45:20.612Z,42.00
2018-04-19T06:47:53.631Z,43.60
2018-04-19T06:50:22.944Z,43.80
2018-04-19T06:52:58.922Z,45.10
2018-04-19T06:55:27.432Z,45.00
2018-04-19T06:58:00.169Z,45.30
2018-04-19T07:00:29.503Z,44.50
2018-04-19T07:03:11.745Z,43.80
2018-04-19T07:05:40.253Z,42.80
2018-04-19T07:08:10.885Z,44.80
2018-04-19T07:10:39.391Z,42.70
2018-04-19T07:13:09.360Z,41.30
2018-04-19T07:15:38.947Z,40.20
2018-04-19T07:18:11.487Z,40.50
2018-04-19T07:20:40.013Z,40.30
2018-04-19T07:23:13.616Z,36.50
2018-04-19T07:25:42.140Z,36.30
2018-04-19T07:28:15.250Z,37.80
2018-04-19T07:30:44.045Z,40.10
2018-04-19T07:33:18.186Z,38.30
2018-04-19T07:35:47.127Z,37.20
2018-04-19T07:38:20.407Z,37.80
2018-04-19T07:40:48.977Z,36.00
2018-04-19T07:43:31.163Z,35.50
2018-04-19T07:45:59.802Z,35.70
2018-04-19T07:48:29.529Z,36.50
2018-04-19T07:50:58.100Z,36.40
2018-04-19T07:53:26.634Z,37.10
2018-04-19T07:55:56.481Z,34.50
2018-04-19T07:58:37.321Z,35.30
2018-04-19T08:01:06.261Z,33.50
2018-04-19T08:03:34.832Z,33.10
2018-04-19T08:06:03.748Z,32.30
2018-04-19T08:08:33.698Z,31.70
2018-04-19T08:11:02.238Z,32.50
2018-04-19T08:13:35.409Z,33.70
2018-04-19T08:16:04.354Z,33.30
2018-04-19T08:18:37.576Z,34.40
2018-04-19T08:21:06.843Z,33.60
2018-04-19T08:23:40.510Z,33.30
2018-04-19T08:26:09.093Z,34.10
2018-04-19T08:28:41.860Z,36.30
2018-04-19T08:31:10.852Z,36.00
2018-04-19T08:33:47.097Z,33.90
2018-04-19T08:36:15.645Z,33.50
2018-04-19T08:38:56.833Z,31.00
2018-04-19T08:41:26.474Z,31.60
2018-04-19T08:43:55.774Z,31.50
2018-04-19T08:46:24.326Z,32.70
2018-04-19T08:48:55.375Z,33.80
2018-04-19T08:51:25.426Z,33.20
2018-04-19T08:53:55.819Z,33.80
2018-04-19T08:56:25.470Z,34.50
2018-04-19T08:59:06.761Z,34.60
2018-04-19T09:01:36.158Z,33.80
2018-04-19T09:04:04.735Z,35.60
2018-04-19T09:06:33.246Z,34.30
2018-04-19T09:09:03.337Z,36.10
2018-04-19T09:11:32.275Z,36.60
2018-04-19T09:16:35.279Z,37.30
2018-04-19T09:19:08.245Z,37.90
2018-04-19T09:21:37.228Z,36.80
2018-04-19T09:24:11.908Z,37.70
2018-04-19T09:26:40.434Z,38.20
2018-04-19T09:29:12.891Z,39.90
2018-04-19T09:31:42.162Z,41.40
2018-04-19T09:34:23.997Z,43.60
2018-04-19T09:36:53.462Z,45.20
2018-04-19T09:39:22.443Z,45.60
2018-04-19T09:44:22.148Z,44.70
2018-04-19T09:46:53.728Z,45.70
2018-04-19T09:49:22.344Z,44.80
2018-04-19T09:54:25.373Z,44.50
2018-04-19T09:56:55.764Z,43.70
2018-04-19T09:59:28.084Z,44.50
2018-04-19T10:02:01.763Z,44.20
2018-04-19T10:04:33.803Z,44.00
2018-04-19T10:07:02.445Z,44.60
2018-04-19T10:09:31.772Z,43.80
2018-04-19T10:12:00.399Z,43.60
2018-04-19T10:14:33.224Z,43.80
2018-04-19T10:17:02.248Z,43.00
2018-04-19T10:19:35.316Z,42.20
2018-04-19T10:22:03.874Z,40.30
2018-04-19T10:24:38.761Z,40.40
2018-04-19T10:27:07.404Z,40.30
2018-04-19T10:29:40.870Z,39.90
2018-04-19T10:32:10.165Z,39.90
2018-04-19T10:34:42.781Z,41.00
2018-04-19T10:37:12.182Z,39.60
2018-04-19T10:39:45.233Z,40.00
2018-04-19T10:42:13.842Z,39.80
2018-04-19T10:44:47.783Z,40.90
2018-04-19T10:47:17.691Z,39.40
2018-04-19T10:49:50.721Z,40.20
2018-04-19T10:52:20.365Z,40.60
2018-04-19T10:54:54.009Z,38.60
2018-04-19T10:57:23.285Z,38.90
2018-04-19T10:59:56.671Z,39.60
2018-04-19T11:02:25.717Z,39.80
2018-04-19T11:05:04.637Z,40.90
2018-04-19T11:07:33.248Z,39.00
2018-04-19T11:10:01.864Z,39.80
2018-04-19T11:12:30.581Z,37.80
2018-04-19T11:15:03.279Z,37.60
2018-04-19T11:17:32.939Z,38.50
2018-04-19T11:22:35.076Z,38.70
2018-04-19T11:25:16.689Z,38.10
2018-04-19T11:30:15.278Z,36.60
2018-04-19T11:32:44.614Z,38.20
2018-04-19T11:35:15.345Z,37.70
2018-04-19T11:37:43.872Z,38.10
2018-04-19T11:40:25.397Z,38.20
2018-04-19T11:42:55.658Z,37.40
2018-04-19T11:45:24.628Z,36.30
2018-04-19T11:50:24.786Z,37.40
2018-04-19T11:52:55.008Z,37.40
2018-04-19T11:55:24.769Z,36.10
2018-04-19T11:57:55.739Z,35.10
2018-04-19T12:00:30.155Z,36.90
2018-04-19T12:02:59.161Z,34.80
2018-04-19T12:05:27.983Z,35.40
2018-04-19T12:07:57.256Z,35.60
2018-04-19T12:10:38.440Z,36.10
2018-04-19T12:13:07.423Z,35.30
2018-04-19T12:15:37.099Z,35.40
2018-04-19T12:18:07.181Z,34.60
2018-04-19T12:20:36.084Z,33.60
2018-04-19T12:23:05.525Z,33.50
2018-04-19T12:28:05.573Z,34.20
2018-04-19T12:30:38.724Z,34.30
2018-04-19T12:33:08.113Z,34.30
2018-04-19T12:35:45.822Z,32.40
2018-04-19T12:38:15.157Z,33.90
2018-04-19T12:40:44.693Z,32.90
2018-04-19T12:43:13.504Z,32.60
2018-04-19T12:45:46.543Z,32.90
2018-04-19T12:48:15.252Z,31.20
2018-04-19T12:50:47.620Z,32.20
2018-04-19T12:53:16.897Z,32.60
2018-04-19T12:55:46.206Z,34.00
2018-04-19T12:58:20.229Z,32.50
2018-04-19T13:00:54.520Z,32.90
2018-04-19T13:03:23.096Z,32.90
2018-04-19T13:05:58.321Z,32.20
2018-04-19T13:08:27.228Z,31.80
2018-04-19T13:11:00.577Z,31.20
2018-04-19T13:13:29.379Z,31.30
2018-04-19T13:16:02.637Z,31.90
2018-04-19T13:18:31.210Z,31.10
2018-04-19T13:21:04.595Z,30.90
2018-04-19T13:23:33.117Z,32.00
2018-04-19T13:28:36.348Z,31.00
2018-04-19T13:31:08.979Z,30.50
2018-04-19T13:33:37.516Z,30.00
2018-04-19T13:38:42.353Z,31.40
2018-04-19T13:41:24.731Z,32.10
2018-04-19T13:43:54.265Z,31.40
2018-04-19T13:46:23.826Z,31.80
2018-04-19T13:48:52.337Z,32.30
2018-04-19T14:04:42.585Z,30.20
2018-04-19T14:07:12.636Z,29.50
2018-04-19T14:12:11.022Z,30.50
2018-04-19T14:14:41.843Z,30.20
2018-04-19T14:17:10.657Z,29.90
2018-04-19T14:24:38.609Z,29.40
2018-04-19T14:32:07.674Z,28.60
2018-04-19T14:34:39.981Z,29.90
2018-04-19T14:37:09.306Z,30.60
2018-04-19T14:39:43.095Z,30.10
2018-04-19T14:44:45.702Z,30.90
2018-04-19T14:47:14.510Z,31.20
2018-04-19T14:52:17.177Z,30.00
2018-04-19T14:54:49.629Z,30.20
2018-04-19T14:57:18.199Z,30.50
2018-04-19T15:00:01.129Z,29.60
2018-04-19T15:02:31.117Z,30.40
2018-04-19T15:05:00.441Z,30.50
2018-04-19T15:07:28.975Z,30.00
2018-04-19T15:09:57.853Z,29.70
2018-04-19T15:12:27.136Z,31.30
2018-04-19T15:17:29.406Z,31.20
2018-04-19T15:20:03.009Z,31.80
2018-04-19T15:22:32.306Z,31.40
2018-04-19T15:38:12.298Z,30.20
2018-04-19T15:40:41.284Z,30.60
2018-04-19T15:43:14.307Z,30.40
2018-04-19T15:45:44.358Z,30.00
2018-04-19T15:48:17.000Z,30.80
2018-04-19T15:50:45.789Z,30.70
2018-04-19T15:53:26.973Z,31.70
2018-04-19T15:55:56.093Z,32.50
2018-04-19T15:58:25.353Z,33.70
2018-04-19T16:00:54.299Z,32.80
2018-04-19T16:03:23.261Z,33.70
2018-04-19T16:05:52.280Z,34.00
2018-04-19T16:08:26.321Z,33.40
2018-04-19T16:10:55.520Z,33.10
2018-04-19T16:15:57.478Z,34.40
2018-04-19T16:21:09.162Z,34.20
2018-04-19T16:23:38.706Z,34.70
2018-04-19T16:28:37.199Z,35.00
2018-04-19T16:31:07.500Z,34.70
2018-04-19T16:33:40.249Z,34.50
2018-04-19T16:36:08.795Z,34.00
2018-04-19T16:38:42.636Z,33.70
2018-04-19T16:43:43.836Z,33.50
2018-04-19T16:46:13.430Z,33.20
2018-04-19T16:48:46.107Z,33.10
2018-04-19T16:53:49.661Z,33.30
2018-04-19T16:56:19.735Z,32.60
2018-04-19T16:58:53.238Z,33.10
2018-04-19T17:01:22.425Z,33.90
2018-04-19T17:03:55.655Z,33.40
2018-04-19T17:06:24.240Z,33.90
2018-04-19T17:09:06.394Z,34.60
2018-04-19T17:11:35.305Z,35.20
2018-04-19T17:16:34.498Z,35.60
2018-04-19T17:19:03.481Z,35.70
2018-04-19T17:21:32.785Z,36.50
2018-04-19T17:24:05.525Z,35.90
2018-04-19T17:26:34.049Z,36.20
2018-04-19T17:29:07.264Z,36.40
2018-04-19T17:31:36.208Z,36.40
2018-04-19T17:34:09.432Z,37.00
2018-04-19T17:36:39.095Z,37.20
2018-04-19T17:39:14.576Z,37.70
2018-04-19T17:41:43.483Z,37.60
2018-04-19T17:44:16.381Z,38.30
2018-04-19T17:49:17.698Z,38.40
2018-04-19T17:51:47.337Z,38.40
2018-04-19T17:54:20.194Z,38.90
2018-04-19T17:56:49.870Z,39.30
2018-04-19T17:59:22.131Z,39.70
2018-04-19T18:01:50.960Z,39.90
2018-04-19T18:04:24.342Z,40.40
2018-04-19T18:06:53.056Z,40.50
2018-04-19T18:11:57.242Z,41.00
2018-04-19T18:14:38.684Z,41.00
2018-04-19T18:19:38.411Z,39.60
2018-04-19T18:22:07.351Z,39.70
2018-04-19T18:24:37.680Z,39.50
2018-04-19T18:27:07.357Z,39.40
2018-04-19T18:34:39.679Z,39.60
2018-04-19T18:37:09.712Z,37.60
2018-04-19T18:39:43.064Z,37.10
2018-04-19T18:42:12.361Z,35.40
2018-04-19T18:47:12.477Z,35.80
2018-04-19T18:49:44.865Z,36.40
2018-04-19T18:52:14.547Z,37.80
2018-04-19T18:57:17.690Z,40.10
2018-04-19T18:59:52.401Z,41.40
2018-04-19T19:02:22.921Z,43.00
2018-04-19T19:04:56.312Z,44.00
2018-04-19T19:07:24.901Z,44.70
2018-04-19T19:09:57.902Z,45.00
2018-04-19T19:12:29.036Z,45.60
2018-04-19T19:14:59.940Z,46.60
2018-04-19T19:19:41.091Z,46.60
2018-04-19T19:22:10.786Z,47.90
2018-04-19T19:24:40.549Z,49.20
2018-04-19T19:27:09.863Z,49.10
2018-04-19T19:29:39.149Z,49.20
2018-04-19T19:32:09.871Z,48.70
2018-04-19T19:34:38.805Z,48.80
2018-04-19T19:37:20.748Z,49.40
2018-04-19T19:39:49.556Z,48.10
2018-04-19T19:42:18.945Z,47.60
2018-04-19T19:44:47.526Z,47.10
2018-04-19T19:47:16.373Z,46.10
2018-04-19T19:49:45.666Z,46.40
2018-04-19T19:52:27.299Z,45.40
2018-04-19T19:54:56.508Z,44.20
2018-04-19T19:57:25.087Z,44.00
2018-04-19T19:59:54.505Z,44.40
2018-04-19T20:02:24.120Z,44.90
2018-04-19T20:04:52.681Z,44.50
2018-04-19T20:07:25.910Z,43.70
2018-04-19T20:09:55.509Z,43.90
2018-04-19T20:12:27.805Z,44.10
2018-04-19T20:14:57.788Z,43.80
2018-04-19T20:17:29.620Z,43.50
2018-04-19T20:19:58.165Z,42.30
2018-04-19T20:22:41.392Z,41.20
2018-04-19T20:25:10.957Z,41.30
2018-04-19T20:27:40.257Z,40.10
2018-04-19T20:30:08.828Z,39.80
2018-04-19T20:32:37.678Z,39.60
2018-04-19T20:35:07.352Z,39.90
2018-04-19T20:37:39.865Z,40.00
2018-04-19T20:40:08.767Z,40.20
2018-04-19T20:42:42.286Z,40.60
2018-04-19T20:45:10.839Z,40.60
2018-04-19T20:47:41.553Z,40.60
2018-04-19T20:50:13.290Z,40.80
2018-04-19T20:52:42.234Z,40.90
2018-04-19T20:57:40.613Z,41.10
2018-04-19T21:00:09.141Z,41.20
2018-04-19T21:02:37.951Z,41.30
2018-04-19T21:05:07.237Z,41.10
2018-04-19T21:07:35.855Z,40.90
2018-04-19T21:10:04.756Z,41.10
2018-04-19T21:12:34.141Z,41.40
2018-04-19T21:15:11.299Z,41.40
2018-04-19T21:17:41.340Z,41.00
2018-04-19T21:20:14.913Z,41.20
2018-04-19T21:22:44.027Z,41.30
2018-04-19T21:25:18.121Z,41.50
2018-04-19T21:27:47.442Z,41.70
2018-04-19T21:30:19.588Z,42.10
2018-04-19T21:32:48.353Z,42.10
2018-04-19T21:35:22.092Z,42.50
2018-04-19T21:37:53.445Z,42.70
2018-04-19T21:40:24.074Z,42.70
2018-04-19T21:42:52.639Z,42.70
2018-04-19T21:45:35.679Z,42.60
2018-04-19T21:48:04.561Z,42.70
2018-04-19T21:50:33.864Z,42.60
2018-04-19T21:53:03.218Z,43.20
2018-04-19T21:58:02.362Z,43.10
2018-04-19T22:00:34.455Z,43.20
2018-04-19T22:03:04.167Z,44.00
2018-04-19T22:05:38.014Z,44.10
2018-04-19T22:08:07.520Z,43.60
2018-04-19T22:10:38.636Z,43.80
2018-04-19T22:13:07.787Z,43.80
2018-04-19T22:15:40.770Z,44.00
2018-04-19T22:18:09.729Z,44.30
2018-04-19T22:20:43.741Z,44.70
2018-04-19T22:23:12.335Z,45.20
2018-04-19T22:25:46.664Z,45.30
2018-04-19T22:28:15.190Z,45.60
2018-04-19T22:30:48.233Z,45.80
2018-04-19T22:33:17.941Z,46.00
2018-04-19T22:35:51.200Z,46.40
2018-04-19T22:38:20.510Z,47.00
2018-04-19T22:41:02.329Z,49.20
2018-04-19T22:46:00.685Z,47.20
2018-04-19T22:48:30.702Z,47.20
2018-04-19T22:51:01.629Z,47.40
2018-04-19T22:56:02.826Z,48.30
2018-04-19T23:01:04.788Z,49.50
2018-04-19T23:03:33.321Z,50.20
2018-04-19T23:06:16.081Z,50.80
2018-04-19T23:08:45.447Z,51.20
2018-04-19T23:11:13.945Z,51.70
2018-04-19T23:13:45.265Z,52.00
2018-04-19T23:16:13.820Z,52.20
2018-04-19T23:18:42.316Z,52.20
2018-04-19T23:21:14.937Z,52.50
2018-04-19T23:23:43.428Z,52.60
2018-04-19T23:26:16.838Z,52.60
2018-04-19T23:28:45.598Z,52.90
2018-04-19T23:31:18.545Z,53.50
2018-04-19T23:33:47.473Z,53.20
2018-04-19T23:36:30.193Z,53.40
2018-04-19T23:38:59.441Z,54.10
2018-04-19T23:41:27.976Z,53.60
2018-04-19T23:43:57.881Z,53.40
2018-04-19T23:46:26.425Z,53.40
2018-04-19T23:48:54.936Z,53.20
2018-04-19T23:51:28.068Z,53.50
2018-04-19T23:56:30.360Z,53.00
2018-04-19T23:59:00.093Z,53.00
